sensor_id;sensor_type;location;lat;lon;timestamp;temperature;humidity
50947;DHT22;36955;47.416;7.716;2022-10-12T00:01:29;12.80;99.90
50947;DHT22;36955;47.416;7.716;2022-10-12T00:03:55;12.80;99.90
50947;DHT22;36955;47.416;7.716;2022-10-12T00:06:22;12.80;99.90
50947;DHT22;36955;47.416;7.716;2022-10-12T00:08:50;12.80;99.90
50947;DHT22;36955;47.416;7.716;2022-10-12T00:11:22;12.80;99.90
50947;DHT22;36955;47.416;7.716;2022-10-12T00:13:49;12.80;99.90
50947;DHT22;36955;47.416;7.716;2022-10-12T00:16:16;12.80;99.90
50947;DHT22;36955;47.416;7.716;2022-10-12T00:18:43;12.70;99.90
50947;DHT22;36955;47.416;7.716;2022-10-12T00:21:13;12.70;99.90
50947;DHT22;36955;47.416;7.716;2022-10-12T00:23:41;12.70;99.90
50947;DHT22;36955;47.416;7.716;2022-10-12T00:26:09;12.70;99.90
50947;DHT22;36955;47.416;7.716;2022-10-12T00:28:36;12.80;99.90
50947;DHT22;36955;47.416;7.716;2022-10-12T00:31:08;12.80;99.90
50947;DHT22;36955;47.416;7.716;2022-10-12T00:33:35;12.80;99.90
50947;DHT22;36955;47.416;7.716;2022-10-12T00:38:38;12.90;99.90
50947;DHT22;36955;47.416;7.716;2022-10-12T00:41:04;12.90;99.90
50947;DHT22;36955;47.416;7.716;2022-10-12T00:43:33;12.80;99.90
50947;DHT22;36955;47.416;7.716;2022-10-12T00:46:00;12.80;99.90
50947;DHT22;36955;47.416;7.716;2022-10-12T00:48:28;12.80;99.90
50947;DHT22;36955;47.416;7.716;2022-10-12T00:50:55;12.80;99.90
50947;DHT22;36955;47.416;7.716;2022-10-12T00:53:24;12.90;99.90
50947;DHT22;36955;47.416;7.716;2022-10-12T00:55:59;13.00;99.90
50947;DHT22;36955;47.416;7.716;2022-10-12T00:58:27;13.00;99.90
50947;DHT22;36955;47.416;7.716;2022-10-12T01:00:53;13.00;99.90
50947;DHT22;36955;47.416;7.716;2022-10-12T01:03:20;12.90;99.90
50947;DHT22;36955;47.416;7.716;2022-10-12T01:05:47;12.80;99.90
50947;DHT22;36955;47.416;7.716;2022-10-12T01:08:13;12.80;99.90
50947;DHT22;36955;47.416;7.716;2022-10-12T01:10:39;12.80;99.90
50947;DHT22;36955;47.416;7.716;2022-10-12T01:13:05;12.80;99.90
50947;DHT22;36955;47.416;7.716;2022-10-12T01:18:18;12.50;99.90
50947;DHT22;36955;47.416;7.716;2022-10-12T01:28:46;12.70;99.90
50947;DHT22;36955;47.416;7.716;2022-10-12T01:34:28;12.60;99.90
50947;DHT22;36955;47.416;7.716;2022-10-12T01:37:14;12.50;99.90
50947;DHT22;36955;47.416;7.716;2022-10-12T01:39:52;12.50;99.90
50947;DHT22;36955;47.416;7.716;2022-10-12T01:42:39;12.50;99.90
50947;DHT22;36955;47.416;7.716;2022-10-12T01:45:13;12.60;99.90
50947;DHT22;36955;47.416;7.716;2022-10-12T01:47:41;12.60;99.90
50947;DHT22;36955;47.416;7.716;2022-10-12T01:50:11;12.50;99.90
50947;DHT22;36955;47.416;7.716;2022-10-12T01:52:55;12.50;99.90
50947;DHT22;36955;47.416;7.716;2022-10-12T02:01:19;12.40;99.90
50947;DHT22;36955;47.416;7.716;2022-10-12T02:06:50;12.40;99.90
50947;DHT22;36955;47.416;7.716;2022-10-12T02:09:27;12.40;99.90
50947;DHT22;36955;47.416;7.716;2022-10-12T02:11:59;12.50;99.90
50947;DHT22;36955;47.416;7.716;2022-10-12T02:14:34;12.40;99.90
50947;DHT22;36955;47.416;7.716;2022-10-12T02:17:03;12.40;99.90
50947;DHT22;36955;47.416;7.716;2022-10-12T02:19:38;12.40;99.90
50947;DHT22;36955;47.416;7.716;2022-10-12T02:22:05;12.40;99.90
50947;DHT22;36955;47.416;7.716;2022-10-12T02:24:35;12.30;99.90
50947;DHT22;36955;47.416;7.716;2022-10-12T02:27:02;12.20;99.90
50947;DHT22;36955;47.416;7.716;2022-10-12T02:29:33;12.20;99.90
50947;DHT22;36955;47.416;7.716;2022-10-12T02:35:09;12.20;99.90
50947;DHT22;36955;47.416;7.716;2022-10-12T02:40:49;12.20;99.90
50947;DHT22;36955;47.416;7.716;2022-10-12T02:45:52;12.30;99.90
50947;DHT22;36955;47.416;7.716;2022-10-12T02:48:21;12.40;99.90
50947;DHT22;36955;47.416;7.716;2022-10-12T02:50:51;12.40;99.90
50947;DHT22;36955;47.416;7.716;2022-10-12T02:53:18;12.40;99.90
50947;DHT22;36955;47.416;7.716;2022-10-12T02:55:50;12.50;99.90
50947;DHT22;36955;47.416;7.716;2022-10-12T02:58:17;12.50;99.90
50947;DHT22;36955;47.416;7.716;2022-10-12T03:00:43;12.50;99.90
50947;DHT22;36955;47.416;7.716;2022-10-12T03:03:10;12.40;99.90
50947;DHT22;36955;47.416;7.716;2022-10-12T03:05:36;12.40;99.90
50947;DHT22;36955;47.416;7.716;2022-10-12T03:08:02;12.30;99.90
50947;DHT22;36955;47.416;7.716;2022-10-12T03:10:28;12.30;99.90
50947;DHT22;36955;47.416;7.716;2022-10-12T03:12:54;12.30;99.90
50947;DHT22;36955;47.416;7.716;2022-10-12T03:15:20;12.10;99.90
50947;DHT22;36955;47.416;7.716;2022-10-12T03:17:46;12.10;99.90
50947;DHT22;36955;47.416;7.716;2022-10-12T03:20:12;12.10;99.90
50947;DHT22;36955;47.416;7.716;2022-10-12T03:22:38;12.10;99.90
50947;DHT22;36955;47.416;7.716;2022-10-12T03:25:05;12.10;99.90
50947;DHT22;36955;47.416;7.716;2022-10-12T03:27:31;12.10;99.90
50947;DHT22;36955;47.416;7.716;2022-10-12T03:29:57;12.10;99.90
50947;DHT22;36955;47.416;7.716;2022-10-12T03:32:23;12.10;99.90
50947;DHT22;36955;47.416;7.716;2022-10-12T03:34:49;12.10;99.90
50947;DHT22;36955;47.416;7.716;2022-10-12T03:37:15;12.10;99.90
50947;DHT22;36955;47.416;7.716;2022-10-12T03:39:41;12.10;99.90
50947;DHT22;36955;47.416;7.716;2022-10-12T03:42:07;12.10;99.90
50947;DHT22;36955;47.416;7.716;2022-10-12T03:44:33;12.10;99.90
50947;DHT22;36955;47.416;7.716;2022-10-12T03:46:59;12.20;99.90
50947;DHT22;36955;47.416;7.716;2022-10-12T03:49:25;12.20;99.90
50947;DHT22;36955;47.416;7.716;2022-10-12T03:51:51;12.20;99.90
50947;DHT22;36955;47.416;7.716;2022-10-12T03:54:18;12.10;99.90
50947;DHT22;36955;47.416;7.716;2022-10-12T03:56:44;12.00;99.90
50947;DHT22;36955;47.416;7.716;2022-10-12T03:59:10;12.00;99.90
50947;DHT22;36955;47.416;7.716;2022-10-12T04:01:36;12.00;99.90
50947;DHT22;36955;47.416;7.716;2022-10-12T04:04:02;12.00;99.90
50947;DHT22;36955;47.416;7.716;2022-10-12T04:06:28;12.00;99.90
50947;DHT22;36955;47.416;7.716;2022-10-12T04:08:54;11.90;99.90
50947;DHT22;36955;47.416;7.716;2022-10-12T04:11:20;11.90;99.90
50947;DHT22;36955;47.416;7.716;2022-10-12T04:13:46;11.90;99.90
50947;DHT22;36955;47.416;7.716;2022-10-12T04:16:12;11.90;99.90
50947;DHT22;36955;47.416;7.716;2022-10-12T04:18:38;11.90;99.90
50947;DHT22;36955;47.416;7.716;2022-10-12T04:21:11;11.90;99.90
50947;DHT22;36955;47.416;7.716;2022-10-12T04:23:37;11.90;99.90
50947;DHT22;36955;47.416;7.716;2022-10-12T04:26:03;11.90;99.90
50947;DHT22;36955;47.416;7.716;2022-10-12T04:28:30;11.90;99.90
50947;DHT22;36955;47.416;7.716;2022-10-12T04:30:56;12.00;99.90
50947;DHT22;36955;47.416;7.716;2022-10-12T04:33:22;12.00;99.90
50947;DHT22;36955;47.416;7.716;2022-10-12T04:35:48;12.00;99.90
50947;DHT22;36955;47.416;7.716;2022-10-12T04:38:14;12.00;99.90
50947;DHT22;36955;47.416;7.716;2022-10-12T04:40:40;12.00;99.90
50947;DHT22;36955;47.416;7.716;2022-10-12T04:43:06;12.00;99.90
50947;DHT22;36955;47.416;7.716;2022-10-12T04:45:32;12.10;99.90
50947;DHT22;36955;47.416;7.716;2022-10-12T04:47:58;12.10;99.90
50947;DHT22;36955;47.416;7.716;2022-10-12T04:50:24;12.10;99.90
50947;DHT22;36955;47.416;7.716;2022-10-12T04:52:50;12.10;99.90
50947;DHT22;36955;47.416;7.716;2022-10-12T04:55:16;12.10;99.90
50947;DHT22;36955;47.416;7.716;2022-10-12T04:57:42;12.20;99.90
50947;DHT22;36955;47.416;7.716;2022-10-12T05:00:09;12.20;99.90
50947;DHT22;36955;47.416;7.716;2022-10-12T05:02:35;12.20;99.90
50947;DHT22;36955;47.416;7.716;2022-10-12T05:05:01;12.20;99.90
50947;DHT22;36955;47.416;7.716;2022-10-12T05:07:27;12.20;99.90
50947;DHT22;36955;47.416;7.716;2022-10-12T05:09:53;12.30;99.90
50947;DHT22;36955;47.416;7.716;2022-10-12T05:12:19;12.30;99.90
50947;DHT22;36955;47.416;7.716;2022-10-12T05:14:45;12.30;99.90
50947;DHT22;36955;47.416;7.716;2022-10-12T05:17:11;12.30;99.90
50947;DHT22;36955;47.416;7.716;2022-10-12T05:19:37;12.20;99.90
50947;DHT22;36955;47.416;7.716;2022-10-12T05:22:03;12.30;99.90
50947;DHT22;36955;47.416;7.716;2022-10-12T05:24:29;12.30;99.90
50947;DHT22;36955;47.416;7.716;2022-10-12T05:26:55;12.40;99.90
50947;DHT22;36955;47.416;7.716;2022-10-12T05:29:22;12.40;99.90
50947;DHT22;36955;47.416;7.716;2022-10-12T05:31:48;12.40;99.90
50947;DHT22;36955;47.416;7.716;2022-10-12T05:34:14;12.40;99.90
50947;DHT22;36955;47.416;7.716;2022-10-12T05:36:40;12.40;99.90
50947;DHT22;36955;47.416;7.716;2022-10-12T05:39:07;12.40;99.90
50947;DHT22;36955;47.416;7.716;2022-10-12T05:41:33;12.50;99.90
50947;DHT22;36955;47.416;7.716;2022-10-12T05:43:59;12.40;99.90
50947;DHT22;36955;47.416;7.716;2022-10-12T05:46:25;12.40;99.90
50947;DHT22;36955;47.416;7.716;2022-10-12T05:48:51;12.30;99.90
50947;DHT22;36955;47.416;7.716;2022-10-12T05:51:17;12.30;99.90
50947;DHT22;36955;47.416;7.716;2022-10-12T05:53:43;12.20;99.90
50947;DHT22;36955;47.416;7.716;2022-10-12T05:56:09;12.20;99.90
50947;DHT22;36955;47.416;7.716;2022-10-12T05:58:35;12.10;99.90
50947;DHT22;36955;47.416;7.716;2022-10-12T06:01:06;12.10;99.90
50947;DHT22;36955;47.416;7.716;2022-10-12T06:03:33;12.10;99.90
50947;DHT22;36955;47.416;7.716;2022-10-12T06:05:59;12.10;99.90
50947;DHT22;36955;47.416;7.716;2022-10-12T06:08:25;12.20;99.90
50947;DHT22;36955;47.416;7.716;2022-10-12T06:10:51;12.20;99.90
50947;DHT22;36955;47.416;7.716;2022-10-12T06:13:17;12.20;99.90
50947;DHT22;36955;47.416;7.716;2022-10-12T06:15:44;12.20;99.90
50947;DHT22;36955;47.416;7.716;2022-10-12T06:18:11;12.20;99.90
50947;DHT22;36955;47.416;7.716;2022-10-12T06:20:37;12.20;99.90
50947;DHT22;36955;47.416;7.716;2022-10-12T06:23:03;12.20;99.90
50947;DHT22;36955;47.416;7.716;2022-10-12T06:25:29;12.20;99.90
50947;DHT22;36955;47.416;7.716;2022-10-12T06:27:55;12.20;99.90
50947;DHT22;36955;47.416;7.716;2022-10-12T06:30:21;12.20;99.90
50947;DHT22;36955;47.416;7.716;2022-10-12T06:32:47;12.30;99.90
50947;DHT22;36955;47.416;7.716;2022-10-12T06:35:13;12.30;99.90
50947;DHT22;36955;47.416;7.716;2022-10-12T06:37:40;12.30;99.90
50947;DHT22;36955;47.416;7.716;2022-10-12T06:40:06;12.40;99.90
50947;DHT22;36955;47.416;7.716;2022-10-12T06:42:32;12.40;99.90
50947;DHT22;36955;47.416;7.716;2022-10-12T06:44:58;12.50;99.90
50947;DHT22;36955;47.416;7.716;2022-10-12T06:47:24;12.40;99.90
50947;DHT22;36955;47.416;7.716;2022-10-12T06:49:50;12.40;99.90
50947;DHT22;36955;47.416;7.716;2022-10-12T06:52:16;12.40;99.90
50947;DHT22;36955;47.416;7.716;2022-10-12T06:54:42;12.40;99.90
50947;DHT22;36955;47.416;7.716;2022-10-12T06:57:08;12.40;99.90
50947;DHT22;36955;47.416;7.716;2022-10-12T06:59:34;12.40;99.90
50947;DHT22;36955;47.416;7.716;2022-10-12T07:02:00;12.40;99.90
50947;DHT22;36955;47.416;7.716;2022-10-12T07:04:26;12.40;99.90
50947;DHT22;36955;47.416;7.716;2022-10-12T07:06:52;12.40;99.90
50947;DHT22;36955;47.416;7.716;2022-10-12T07:09:18;12.40;99.90
50947;DHT22;36955;47.416;7.716;2022-10-12T07:11:44;12.40;99.90
50947;DHT22;36955;47.416;7.716;2022-10-12T07:14:10;12.50;99.90
50947;DHT22;36955;47.416;7.716;2022-10-12T07:16:36;12.50;99.90
50947;DHT22;36955;47.416;7.716;2022-10-12T07:19:02;12.50;99.90
50947;DHT22;36955;47.416;7.716;2022-10-12T07:21:28;12.60;99.90
50947;DHT22;36955;47.416;7.716;2022-10-12T07:23:55;12.60;99.90
50947;DHT22;36955;47.416;7.716;2022-10-12T07:26:21;12.70;99.90
50947;DHT22;36955;47.416;7.716;2022-10-12T07:28:47;12.70;99.90
50947;DHT22;36955;47.416;7.716;2022-10-12T07:31:13;12.70;99.90
50947;DHT22;36955;47.416;7.716;2022-10-12T07:33:39;12.70;99.90
50947;DHT22;36955;47.416;7.716;2022-10-12T07:36:05;12.60;99.90
50947;DHT22;36955;47.416;7.716;2022-10-12T07:38:32;12.80;99.90
50947;DHT22;36955;47.416;7.716;2022-10-12T07:40:59;12.80;99.90
50947;DHT22;36955;47.416;7.716;2022-10-12T07:43:26;12.80;99.90
50947;DHT22;36955;47.416;7.716;2022-10-12T07:45:52;12.90;99.90
50947;DHT22;36955;47.416;7.716;2022-10-12T07:48:19;13.00;99.90
50947;DHT22;36955;47.416;7.716;2022-10-12T07:50:45;13.10;99.90
50947;DHT22;36955;47.416;7.716;2022-10-12T07:53:11;13.20;99.90
50947;DHT22;36955;47.416;7.716;2022-10-12T07:55:37;13.30;99.90
50947;DHT22;36955;47.416;7.716;2022-10-12T07:58:03;13.30;99.90
50947;DHT22;36955;47.416;7.716;2022-10-12T08:00:30;13.40;99.90
50947;DHT22;36955;47.416;7.716;2022-10-12T08:02:57;13.50;99.90
50947;DHT22;36955;47.416;7.716;2022-10-12T08:05:24;13.60;99.90
50947;DHT22;36955;47.416;7.716;2022-10-12T08:07:51;13.70;99.90
50947;DHT22;36955;47.416;7.716;2022-10-12T08:10:19;13.80;99.90
50947;DHT22;36955;47.416;7.716;2022-10-12T08:12:45;13.90;99.90
50947;DHT22;36955;47.416;7.716;2022-10-12T08:15:12;14.00;99.90
50947;DHT22;36955;47.416;7.716;2022-10-12T08:17:39;14.10;99.90
50947;DHT22;36955;47.416;7.716;2022-10-12T08:20:05;14.20;99.90
50947;DHT22;36955;47.416;7.716;2022-10-12T08:22:31;14.20;99.90
50947;DHT22;36955;47.416;7.716;2022-10-12T08:24:57;14.30;99.90
50947;DHT22;36955;47.416;7.716;2022-10-12T08:27:23;14.30;99.90
50947;DHT22;36955;47.416;7.716;2022-10-12T08:29:49;14.40;99.90
50947;DHT22;36955;47.416;7.716;2022-10-12T08:32:15;14.30;99.90
50947;DHT22;36955;47.416;7.716;2022-10-12T08:34:41;14.30;99.90
50947;DHT22;36955;47.416;7.716;2022-10-12T08:37:07;14.30;99.90
50947;DHT22;36955;47.416;7.716;2022-10-12T08:39:33;14.30;99.90
50947;DHT22;36955;47.416;7.716;2022-10-12T08:47:32;14.20;99.90
50947;DHT22;36955;47.416;7.716;2022-10-12T08:50:01;14.30;99.90
50947;DHT22;36955;47.416;7.716;2022-10-12T08:52:47;14.30;99.90
50947;DHT22;36955;47.416;7.716;2022-10-12T08:55:33;14.40;99.90
50947;DHT22;36955;47.416;7.716;2022-10-12T08:57:59;14.50;99.90
50947;DHT22;36955;47.416;7.716;2022-10-12T09:00:26;14.50;99.90
50947;DHT22;36955;47.416;7.716;2022-10-12T09:05:55;14.50;99.90
50947;DHT22;36955;47.416;7.716;2022-10-12T09:14:13;14.70;99.90
50947;DHT22;36955;47.416;7.716;2022-10-12T09:16:46;14.80;99.90
50947;DHT22;36955;47.416;7.716;2022-10-12T09:19:34;14.90;99.90
50947;DHT22;36955;47.416;7.716;2022-10-12T09:22:02;14.90;99.90
50947;DHT22;36955;47.416;7.716;2022-10-12T09:24:34;15.00;99.90
50947;DHT22;36955;47.416;7.716;2022-10-12T09:27:18;15.00;99.90
50947;DHT22;36955;47.416;7.716;2022-10-12T09:29:47;15.00;99.90
50947;DHT22;36955;47.416;7.716;2022-10-12T09:32:35;15.10;99.90
50947;DHT22;36955;47.416;7.716;2022-10-12T09:35:05;15.20;99.90
50947;DHT22;36955;47.416;7.716;2022-10-12T09:37:32;15.20;99.90
50947;DHT22;36955;47.416;7.716;2022-10-12T09:40:00;15.30;99.90
50947;DHT22;36955;47.416;7.716;2022-10-12T09:42:26;15.20;99.90
50947;DHT22;36955;47.416;7.716;2022-10-12T09:44:58;15.30;99.90
50947;DHT22;36955;47.416;7.716;2022-10-12T09:47:31;15.30;99.90
50947;DHT22;36955;47.416;7.716;2022-10-12T09:50:07;15.40;99.90
50947;DHT22;36955;47.416;7.716;2022-10-12T09:55:05;15.40;99.90
50947;DHT22;36955;47.416;7.716;2022-10-12T09:57:35;15.50;99.90
50947;DHT22;36955;47.416;7.716;2022-10-12T10:00:31;15.40;99.90
50947;DHT22;36955;47.416;7.716;2022-10-12T10:02:58;15.50;99.90
50947;DHT22;36955;47.416;7.716;2022-10-12T10:05:29;15.60;99.90
50947;DHT22;36955;47.416;7.716;2022-10-12T10:08:30;15.60;99.90
50947;DHT22;36955;47.416;7.716;2022-10-12T10:11:03;15.70;99.90
50947;DHT22;36955;47.416;7.716;2022-10-12T10:13:32;15.80;99.90
50947;DHT22;36955;47.416;7.716;2022-10-12T10:16:10;15.80;99.90
50947;DHT22;36955;47.416;7.716;2022-10-12T10:18:40;15.90;99.90
50947;DHT22;36955;47.416;7.716;2022-10-12T10:21:12;15.90;99.90
50947;DHT22;36955;47.416;7.716;2022-10-12T10:23:43;16.00;99.90
50947;DHT22;36955;47.416;7.716;2022-10-12T10:26:15;16.00;99.90
50947;DHT22;36955;47.416;7.716;2022-10-12T10:28:46;16.00;99.90
50947;DHT22;36955;47.416;7.716;2022-10-12T10:33:39;16.00;99.90
50947;DHT22;36955;47.416;7.716;2022-10-12T10:36:25;16.00;99.90
50947;DHT22;36955;47.416;7.716;2022-10-12T10:39:02;16.00;99.90
50947;DHT22;36955;47.416;7.716;2022-10-12T10:44:00;15.80;99.90
50947;DHT22;36955;47.416;7.716;2022-10-12T10:46:29;15.60;99.90
50947;DHT22;36955;47.416;7.716;2022-10-12T10:49:02;15.60;99.90
50947;DHT22;36955;47.416;7.716;2022-10-12T10:54:19;15.50;99.90
50947;DHT22;36955;47.416;7.716;2022-10-12T10:56:52;15.50;99.90
50947;DHT22;36955;47.416;7.716;2022-10-12T11:05:32;15.40;99.90
50947;DHT22;36955;47.416;7.716;2022-10-12T11:08:05;15.40;99.90
50947;DHT22;36955;47.416;7.716;2022-10-12T11:10:46;15.40;99.90
50947;DHT22;36955;47.416;7.716;2022-10-12T11:13:28;15.50;99.90
50947;DHT22;36955;47.416;7.716;2022-10-12T11:16:03;15.50;99.90
50947;DHT22;36955;47.416;7.716;2022-10-12T11:18:49;15.60;99.90
50947;DHT22;36955;47.416;7.716;2022-10-12T11:21:22;15.50;99.90
50947;DHT22;36955;47.416;7.716;2022-10-12T11:24:18;15.50;99.90
50947;DHT22;36955;47.416;7.716;2022-10-12T11:27:08;15.60;99.90
50947;DHT22;36955;47.416;7.716;2022-10-12T11:29:35;15.60;99.90
50947;DHT22;36955;47.416;7.716;2022-10-12T11:32:06;15.60;99.90
50947;DHT22;36955;47.416;7.716;2022-10-12T11:34:52;15.80;99.90
50947;DHT22;36955;47.416;7.716;2022-10-12T11:37:23;15.90;99.90
50947;DHT22;36955;47.416;7.716;2022-10-12T11:39:53;16.00;99.90
50947;DHT22;36955;47.416;7.716;2022-10-12T11:42:47;16.10;99.90
50947;DHT22;36955;47.416;7.716;2022-10-12T11:45:25;16.00;99.90
50947;DHT22;36955;47.416;7.716;2022-10-12T11:47:56;15.90;99.90
50947;DHT22;36955;47.416;7.716;2022-10-12T11:50:36;15.90;99.90
50947;DHT22;36955;47.416;7.716;2022-10-12T11:53:42;15.90;99.90
50947;DHT22;36955;47.416;7.716;2022-10-12T11:56:19;15.80;99.90
50947;DHT22;36955;47.416;7.716;2022-10-12T11:58:50;15.80;99.90
50947;DHT22;36955;47.416;7.716;2022-10-12T12:01:42;15.80;99.90
50947;DHT22;36955;47.416;7.716;2022-10-12T12:04:26;15.80;99.90
50947;DHT22;36955;47.416;7.716;2022-10-12T12:12:27;16.00;99.90
50947;DHT22;36955;47.416;7.716;2022-10-12T12:19:50;15.90;99.90
50947;DHT22;36955;47.416;7.716;2022-10-12T12:22:28;16.00;99.90
50947;DHT22;36955;47.416;7.716;2022-10-12T12:25:02;16.10;99.90
50947;DHT22;36955;47.416;7.716;2022-10-12T12:27:57;16.30;99.90
50947;DHT22;36955;47.416;7.716;2022-10-12T12:30:35;16.40;99.90
50947;DHT22;36955;47.416;7.716;2022-10-12T12:33:34;16.40;99.90
50947;DHT22;36955;47.416;7.716;2022-10-12T12:36:25;16.40;99.90
50947;DHT22;36955;47.416;7.716;2022-10-12T12:38:53;16.60;99.90
50947;DHT22;36955;47.416;7.716;2022-10-12T12:41:21;16.70;99.90
50947;DHT22;36955;47.416;7.716;2022-10-12T12:43:51;16.70;99.90
50947;DHT22;36955;47.416;7.716;2022-10-12T12:46:18;16.80;99.90
50947;DHT22;36955;47.416;7.716;2022-10-12T12:51:23;17.00;99.90
50947;DHT22;36955;47.416;7.716;2022-10-12T13:05:25;16.90;99.90
50947;DHT22;36955;47.416;7.716;2022-10-12T13:19:36;16.70;99.90
50947;DHT22;36955;47.416;7.716;2022-10-12T13:22:07;16.70;99.90
50947;DHT22;36955;47.416;7.716;2022-10-12T13:24:49;16.60;99.90
50947;DHT22;36955;47.416;7.716;2022-10-12T13:27:20;16.50;99.90
50947;DHT22;36955;47.416;7.716;2022-10-12T13:29:58;16.50;99.90
50947;DHT22;36955;47.416;7.716;2022-10-12T13:32:52;16.40;99.90
50947;DHT22;36955;47.416;7.716;2022-10-12T13:38:35;16.40;99.90
50947;DHT22;36955;47.416;7.716;2022-10-12T13:41:15;16.50;99.90
50947;DHT22;36955;47.416;7.716;2022-10-12T13:43:52;16.70;99.90
50947;DHT22;36955;47.416;7.716;2022-10-12T13:51:52;17.00;99.90
50947;DHT22;36955;47.416;7.716;2022-10-12T13:54:36;17.00;99.90
50947;DHT22;36955;47.416;7.716;2022-10-12T13:59:35;17.10;99.90
50947;DHT22;36955;47.416;7.716;2022-10-12T14:02:03;17.10;99.90
50947;DHT22;36955;47.416;7.716;2022-10-12T14:04:42;17.10;99.90
50947;DHT22;36955;47.416;7.716;2022-10-12T14:07:19;16.90;99.90
50947;DHT22;36955;47.416;7.716;2022-10-12T14:09:49;16.80;99.90
50947;DHT22;36955;47.416;7.716;2022-10-12T14:12:16;16.80;99.90
50947;DHT22;36955;47.416;7.716;2022-10-12T14:14:44;16.80;99.90
50947;DHT22;36955;47.416;7.716;2022-10-12T14:17:18;16.80;99.90
50947;DHT22;36955;47.416;7.716;2022-10-12T14:19:47;16.90;99.90
50947;DHT22;36955;47.416;7.716;2022-10-12T14:22:28;17.00;99.90
50947;DHT22;36955;47.416;7.716;2022-10-12T14:25:15;17.20;99.90
50947;DHT22;36955;47.416;7.716;2022-10-12T14:27:42;17.20;99.90
50947;DHT22;36955;47.416;7.716;2022-10-12T14:30:23;17.10;99.90
50947;DHT22;36955;47.416;7.716;2022-10-12T14:32:52;17.00;99.90
50947;DHT22;36955;47.416;7.716;2022-10-12T14:37:45;17.10;99.90
50947;DHT22;36955;47.416;7.716;2022-10-12T14:40:26;17.20;99.90
50947;DHT22;36955;47.416;7.716;2022-10-12T14:42:57;17.30;99.90
50947;DHT22;36955;47.416;7.716;2022-10-12T14:45:24;17.60;99.90
50947;DHT22;36955;47.416;7.716;2022-10-12T14:47:51;17.80;99.90
50947;DHT22;36955;47.416;7.716;2022-10-12T14:50:20;17.80;99.90
50947;DHT22;36955;47.416;7.716;2022-10-12T14:52:48;17.70;99.90
50947;DHT22;36955;47.416;7.716;2022-10-12T14:55:19;17.40;99.90
50947;DHT22;36955;47.416;7.716;2022-10-12T14:57:47;17.30;99.90
50947;DHT22;36955;47.416;7.716;2022-10-12T15:00:18;17.40;99.90
50947;DHT22;36955;47.416;7.716;2022-10-12T15:02:45;17.20;99.90
50947;DHT22;36955;47.416;7.716;2022-10-12T15:05:12;17.20;99.90
50947;DHT22;36955;47.416;7.716;2022-10-12T15:07:39;17.20;99.90
50947;DHT22;36955;47.416;7.716;2022-10-12T15:10:05;17.10;99.90
50947;DHT22;36955;47.416;7.716;2022-10-12T15:12:32;17.00;99.90
50947;DHT22;36955;47.416;7.716;2022-10-12T15:15:00;16.90;99.90
50947;DHT22;36955;47.416;7.716;2022-10-12T15:17:26;16.70;99.90
50947;DHT22;36955;47.416;7.716;2022-10-12T15:19:52;16.70;99.90
50947;DHT22;36955;47.416;7.716;2022-10-12T15:22:22;16.60;99.90
50947;DHT22;36955;47.416;7.716;2022-10-12T15:24:49;16.60;99.90
50947;DHT22;36955;47.416;7.716;2022-10-12T15:27:15;16.60;99.90
50947;DHT22;36955;47.416;7.716;2022-10-12T15:29:41;16.60;99.90
50947;DHT22;36955;47.416;7.716;2022-10-12T15:32:10;16.50;99.90
50947;DHT22;36955;47.416;7.716;2022-10-12T15:34:36;16.60;99.90
50947;DHT22;36955;47.416;7.716;2022-10-12T15:37:02;16.50;99.90
50947;DHT22;36955;47.416;7.716;2022-10-12T15:39:28;16.40;99.90
50947;DHT22;36955;47.416;7.716;2022-10-12T15:41:55;16.30;99.90
50947;DHT22;36955;47.416;7.716;2022-10-12T15:44:21;16.30;99.90
50947;DHT22;36955;47.416;7.716;2022-10-12T15:46:49;16.30;99.90
50947;DHT22;36955;47.416;7.716;2022-10-12T15:49:15;16.20;99.90
50947;DHT22;36955;47.416;7.716;2022-10-12T15:51:46;16.10;99.90
50947;DHT22;36955;47.416;7.716;2022-10-12T15:54:12;16.00;99.90
50947;DHT22;36955;47.416;7.716;2022-10-12T15:56:39;16.00;99.90
50947;DHT22;36955;47.416;7.716;2022-10-12T15:59:05;16.00;99.90
50947;DHT22;36955;47.416;7.716;2022-10-12T16:01:33;15.90;99.90
50947;DHT22;36955;47.416;7.716;2022-10-12T16:04:00;15.90;99.90
50947;DHT22;36955;47.416;7.716;2022-10-12T16:06:26;15.90;99.90
50947;DHT22;36955;47.416;7.716;2022-10-12T16:08:52;15.90;99.90
50947;DHT22;36955;47.416;7.716;2022-10-12T16:11:19;15.80;99.90
50947;DHT22;36955;47.416;7.716;2022-10-12T16:13:46;15.90;99.90
50947;DHT22;36955;47.416;7.716;2022-10-12T16:16:12;15.90;99.90
50947;DHT22;36955;47.416;7.716;2022-10-12T16:18:38;15.90;99.90
50947;DHT22;36955;47.416;7.716;2022-10-12T16:21:05;15.90;99.90
50947;DHT22;36955;47.416;7.716;2022-10-12T16:23:33;15.90;99.90
50947;DHT22;36955;47.416;7.716;2022-10-12T16:26:05;16.00;99.90
50947;DHT22;36955;47.416;7.716;2022-10-12T16:28:32;16.00;99.90
50947;DHT22;36955;47.416;7.716;2022-10-12T16:30:58;16.10;99.90
50947;DHT22;36955;47.416;7.716;2022-10-12T16:33:24;16.00;99.90
50947;DHT22;36955;47.416;7.716;2022-10-12T16:35:51;15.80;99.90
50947;DHT22;36955;47.416;7.716;2022-10-12T16:38:17;15.60;99.90
50947;DHT22;36955;47.416;7.716;2022-10-12T16:40:43;15.20;99.90
50947;DHT22;36955;47.416;7.716;2022-10-12T16:43:09;15.00;99.90
50947;DHT22;36955;47.416;7.716;2022-10-12T16:45:36;14.70;99.90
50947;DHT22;36955;47.416;7.716;2022-10-12T16:48:02;14.60;99.90
50947;DHT22;36955;47.416;7.716;2022-10-12T16:50:28;14.40;99.90
50947;DHT22;36955;47.416;7.716;2022-10-12T16:52:54;14.30;99.90
50947;DHT22;36955;47.416;7.716;2022-10-12T16:55:20;14.10;99.90
50947;DHT22;36955;47.416;7.716;2022-10-12T16:57:46;14.00;99.90
50947;DHT22;36955;47.416;7.716;2022-10-12T17:00:15;13.90;99.90
50947;DHT22;36955;47.416;7.716;2022-10-12T17:02:41;13.80;99.90
50947;DHT22;36955;47.416;7.716;2022-10-12T17:05:07;13.70;99.90
50947;DHT22;36955;47.416;7.716;2022-10-12T17:07:33;13.60;99.90
50947;DHT22;36955;47.416;7.716;2022-10-12T17:10:00;13.50;99.90
50947;DHT22;36955;47.416;7.716;2022-10-12T17:12:26;13.40;99.90
50947;DHT22;36955;47.416;7.716;2022-10-12T17:14:52;13.40;99.90
50947;DHT22;36955;47.416;7.716;2022-10-12T17:17:19;13.40;99.90
50947;DHT22;36955;47.416;7.716;2022-10-12T17:19:45;13.40;99.90
50947;DHT22;36955;47.416;7.716;2022-10-12T17:22:12;13.30;99.90
50947;DHT22;36955;47.416;7.716;2022-10-12T17:24:40;13.30;99.90
50947;DHT22;36955;47.416;7.716;2022-10-12T17:27:07;13.20;99.90
50947;DHT22;36955;47.416;7.716;2022-10-12T17:29:34;13.20;99.90
50947;DHT22;36955;47.416;7.716;2022-10-12T17:32:01;13.10;99.90
50947;DHT22;36955;47.416;7.716;2022-10-12T17:34:30;13.00;99.90
50947;DHT22;36955;47.416;7.716;2022-10-12T17:36:58;12.90;99.90
50947;DHT22;36955;47.416;7.716;2022-10-12T17:39:27;12.90;99.90